sensor_id;sensor_type;location;lat;lon;timestamp;P1;durP1;ratioP1;P2;durP2;ratioP2
4577;SDS011;2301;47.354;8.528;2023-06-22T00:01:16;4.80;;;3.37;;
4577;SDS011;2301;47.354;8.528;2023-06-22T00:03:43;9.90;;;4.00;;
4577;SDS011;2301;47.354;8.528;2023-06-22T00:06:12;6.13;;;3.90;;
4577;SDS011;2301;47.354;8.528;2023-06-22T00:08:38;5.90;;;4.03;;
4577;SDS011;2301;47.354;8.528;2023-06-22T00:11:05;9.73;;;4.07;;
4577;SDS011;2301;47.354;8.528;2023-06-22T00:13:32;7.93;;;4.00;;
4577;SDS011;2301;47.354;8.528;2023-06-22T00:15:59;7.30;;;3.97;;
4577;SDS011;2301;47.354;8.528;2023-06-22T00:18:26;6.60;;;3.80;;
4577;SDS011;2301;47.354;8.528;2023-06-22T00:20:55;9.07;;;4.13;;
4577;SDS011;2301;47.354;8.528;2023-06-22T00:23:25;7.50;;;4.20;;
4577;SDS011;2301;47.354;8.528;2023-06-22T00:25:52;6.60;;;4.13;;
4577;SDS011;2301;47.354;8.528;2023-06-22T00:28:19;6.77;;;4.13;;
4577;SDS011;2301;47.354;8.528;2023-06-22T00:30:46;7.80;;;3.87;;
4577;SDS011;2301;47.354;8.528;2023-06-22T00:33:14;7.17;;;3.83;;
4577;SDS011;2301;47.354;8.528;2023-06-22T00:35:41;8.40;;;4.30;;
4577;SDS011;2301;47.354;8.528;2023-06-22T00:38:08;6.73;;;3.77;;
4577;SDS011;2301;47.354;8.528;2023-06-22T00:40:36;6.60;;;3.50;;
4577;SDS011;2301;47.354;8.528;2023-06-22T00:43:03;9.73;;;4.57;;
4577;SDS011;2301;47.354;8.528;2023-06-22T00:45:31;9.20;;;4.10;;
4577;SDS011;2301;47.354;8.528;2023-06-22T00:47:58;7.00;;;3.60;;
4577;SDS011;2301;47.354;8.528;2023-06-22T00:50:26;18.17;;;4.27;;
4577;SDS011;2301;47.354;8.528;2023-06-22T00:52:58;7.90;;;4.03;;
4577;SDS011;2301;47.354;8.528;2023-06-22T00:55:27;10.40;;;4.50;;
4577;SDS011;2301;47.354;8.528;2023-06-22T00:57:57;6.77;;;3.70;;
4577;SDS011;2301;47.354;8.528;2023-06-22T01:00:24;7.87;;;3.67;;
4577;SDS011;2301;47.354;8.528;2023-06-22T01:02:51;8.80;;;4.00;;
4577;SDS011;2301;47.354;8.528;2023-06-22T01:05:19;6.00;;;3.90;;
4577;SDS011;2301;47.354;8.528;2023-06-22T01:07:50;6.67;;;3.90;;
4577;SDS011;2301;47.354;8.528;2023-06-22T01:10:31;8.60;;;4.13;;
4577;SDS011;2301;47.354;8.528;2023-06-22T01:13:06;10.37;;;4.20;;
4577;SDS011;2301;47.354;8.528;2023-06-22T01:15:40;6.10;;;3.67;;
4577;SDS011;2301;47.354;8.528;2023-06-22T01:18:14;8.70;;;4.27;;
4577;SDS011;2301;47.354;8.528;2023-06-22T01:20:43;9.53;;;4.07;;
4577;SDS011;2301;47.354;8.528;2023-06-22T01:23:11;9.90;;;4.40;;
4577;SDS011;2301;47.354;8.528;2023-06-22T01:25:53;8.00;;;4.30;;
4577;SDS011;2301;47.354;8.528;2023-06-22T01:28:45;7.13;;;3.70;;
4577;SDS011;2301;47.354;8.528;2023-06-22T01:31:14;9.90;;;3.80;;
4577;SDS011;2301;47.354;8.528;2023-06-22T01:33:43;7.83;;;4.30;;
4577;SDS011;2301;47.354;8.528;2023-06-22T01:36:12;6.30;;;3.57;;
4577;SDS011;2301;47.354;8.528;2023-06-22T01:38:40;8.10;;;3.60;;
4577;SDS011;2301;47.354;8.528;2023-06-22T01:41:09;5.83;;;3.50;;
4577;SDS011;2301;47.354;8.528;2023-06-22T01:43:37;10.00;;;4.57;;
4577;SDS011;2301;47.354;8.528;2023-06-22T01:46:06;9.87;;;4.40;;
4577;SDS011;2301;47.354;8.528;2023-06-22T01:48:33;8.60;;;4.10;;
4577;SDS011;2301;47.354;8.528;2023-06-22T01:51:00;7.37;;;4.00;;
4577;SDS011;2301;47.354;8.528;2023-06-22T01:53:27;8.83;;;3.70;;
4577;SDS011;2301;47.354;8.528;2023-06-22T01:55:55;9.60;;;4.67;;
4577;SDS011;2301;47.354;8.528;2023-06-22T01:58:22;12.67;;;4.20;;
4577;SDS011;2301;47.354;8.528;2023-06-22T02:00:53;5.90;;;3.57;;
4577;SDS011;2301;47.354;8.528;2023-06-22T02:03:28;10.77;;;4.00;;
4577;SDS011;2301;47.354;8.528;2023-06-22T02:06:01;7.47;;;3.90;;
4577;SDS011;2301;47.354;8.528;2023-06-22T02:08:32;7.37;;;4.30;;
4577;SDS011;2301;47.354;8.528;2023-06-22T02:11:04;10.87;;;4.80;;
4577;SDS011;2301;47.354;8.528;2023-06-22T02:13:33;5.40;;;3.77;;
4577;SDS011;2301;47.354;8.528;2023-06-22T02:16:01;12.03;;;4.20;;
4577;SDS011;2301;47.354;8.528;2023-06-22T02:18:29;8.50;;;3.83;;
4577;SDS011;2301;47.354;8.528;2023-06-22T02:20:56;7.97;;;4.33;;
4577;SDS011;2301;47.354;8.528;2023-06-22T02:23:24;6.23;;;3.73;;
4577;SDS011;2301;47.354;8.528;2023-06-22T02:25:51;6.50;;;3.77;;
4577;SDS011;2301;47.354;8.528;2023-06-22T02:28:18;6.57;;;3.93;;
4577;SDS011;2301;47.354;8.528;2023-06-22T02:30:45;6.90;;;3.80;;
4577;SDS011;2301;47.354;8.528;2023-06-22T02:33:11;10.60;;;4.30;;
4577;SDS011;2301;47.354;8.528;2023-06-22T02:35:40;8.00;;;4.40;;
4577;SDS011;2301;47.354;8.528;2023-06-22T02:38:13;9.53;;;4.40;;
4577;SDS011;2301;47.354;8.528;2023-06-22T02:40:40;6.77;;;3.90;;
4577;SDS011;2301;47.354;8.528;2023-06-22T02:43:07;9.93;;;4.50;;
4577;SDS011;2301;47.354;8.528;2023-06-22T02:45:34;6.63;;;3.83;;
4577;SDS011;2301;47.354;8.528;2023-06-22T02:48:00;5.60;;;3.47;;
4577;SDS011;2301;47.354;8.528;2023-06-22T02:50:27;6.87;;;4.40;;
4577;SDS011;2301;47.354;8.528;2023-06-22T02:52:56;10.07;;;3.80;;
4577;SDS011;2301;47.354;8.528;2023-06-22T02:55:23;6.90;;;4.10;;
4577;SDS011;2301;47.354;8.528;2023-06-22T02:57:50;7.53;;;4.00;;
4577;SDS011;2301;47.354;8.528;2023-06-22T03:00:17;7.37;;;3.63;;
4577;SDS011;2301;47.354;8.528;2023-06-22T03:02:47;7.40;;;3.67;;
4577;SDS011;2301;47.354;8.528;2023-06-22T03:05:14;7.57;;;3.87;;
4577;SDS011;2301;47.354;8.528;2023-06-22T03:07:43;7.07;;;3.97;;
4577;SDS011;2301;47.354;8.528;2023-06-22T03:10:13;10.60;;;3.70;;
4577;SDS011;2301;47.354;8.528;2023-06-22T03:12:41;9.53;;;3.80;;
4577;SDS011;2301;47.354;8.528;2023-06-22T03:15:09;9.07;;;4.17;;
4577;SDS011;2301;47.354;8.528;2023-06-22T03:17:38;9.53;;;4.10;;
4577;SDS011;2301;47.354;8.528;2023-06-22T03:20:06;6.80;;;3.63;;
4577;SDS011;2301;47.354;8.528;2023-06-22T03:22:36;8.20;;;4.23;;
4577;SDS011;2301;47.354;8.528;2023-06-22T03:25:03;7.70;;;3.70;;
4577;SDS011;2301;47.354;8.528;2023-06-22T03:27:36;7.10;;;3.67;;
4577;SDS011;2301;47.354;8.528;2023-06-22T03:30:04;7.93;;;3.70;;
4577;SDS011;2301;47.354;8.528;2023-06-22T03:32:31;7.30;;;4.17;;
4577;SDS011;2301;47.354;8.528;2023-06-22T03:34:58;7.87;;;3.70;;
4577;SDS011;2301;47.354;8.528;2023-06-22T03:37:26;6.07;;;3.67;;
4577;SDS011;2301;47.354;8.528;2023-06-22T03:39:52;9.33;;;3.57;;
4577;SDS011;2301;47.354;8.528;2023-06-22T03:42:19;6.70;;;3.60;;
4577;SDS011;2301;47.354;8.528;2023-06-22T03:44:48;9.13;;;3.97;;
4577;SDS011;2301;47.354;8.528;2023-06-22T03:47:15;7.80;;;3.77;;
4577;SDS011;2301;47.354;8.528;2023-06-22T03:49:41;7.63;;;4.00;;
4577;SDS011;2301;47.354;8.528;2023-06-22T03:52:08;6.57;;;3.90;;
4577;SDS011;2301;47.354;8.528;2023-06-22T03:54:36;8.23;;;3.80;;
4577;SDS011;2301;47.354;8.528;2023-06-22T03:57:03;6.80;;;4.20;;
4577;SDS011;2301;47.354;8.528;2023-06-22T03:59:30;5.40;;;3.73;;
4577;SDS011;2301;47.354;8.528;2023-06-22T04:02:00;6.43;;;3.50;;
4577;SDS011;2301;47.354;8.528;2023-06-22T04:04:30;7.67;;;3.73;;
4577;SDS011;2301;47.354;8.528;2023-06-22T04:06:59;10.93;;;3.60;;
4577;SDS011;2301;47.354;8.528;2023-06-22T04:09:26;7.80;;;3.73;;
4577;SDS011;2301;47.354;8.528;2023-06-22T04:11:53;7.87;;;3.93;;
4577;SDS011;2301;47.354;8.528;2023-06-22T04:14:19;6.90;;;4.23;;
4577;SDS011;2301;47.354;8.528;2023-06-22T04:16:46;8.90;;;4.53;;
4577;SDS011;2301;47.354;8.528;2023-06-22T04:19:15;7.73;;;3.97;;
4577;SDS011;2301;47.354;8.528;2023-06-22T04:21:42;6.80;;;4.03;;
4577;SDS011;2301;47.354;8.528;2023-06-22T04:24:10;10.53;;;4.20;;
4577;SDS011;2301;47.354;8.528;2023-06-22T04:26:37;7.00;;;3.63;;
4577;SDS011;2301;47.354;8.528;2023-06-22T04:29:06;6.80;;;4.07;;
4577;SDS011;2301;47.354;8.528;2023-06-22T04:31:33;8.00;;;4.00;;
4577;SDS011;2301;47.354;8.528;2023-06-22T04:34:01;6.70;;;3.97;;
4577;SDS011;2301;47.354;8.528;2023-06-22T04:36:34;8.47;;;4.50;;
4577;SDS011;2301;47.354;8.528;2023-06-22T04:39:04;7.70;;;3.90;;
4577;SDS011;2301;47.354;8.528;2023-06-22T04:41:32;7.17;;;4.03;;
4577;SDS011;2301;47.354;8.528;2023-06-22T04:44:07;7.43;;;4.00;;
4577;SDS011;2301;47.354;8.528;2023-06-22T04:46:35;9.27;;;4.40;;
4577;SDS011;2301;47.354;8.528;2023-06-22T04:49:03;11.13;;;4.03;;
4577;SDS011;2301;47.354;8.528;2023-06-22T04:51:36;8.10;;;4.40;;
4577;SDS011;2301;47.354;8.528;2023-06-22T04:54:03;6.90;;;4.27;;
4577;SDS011;2301;47.354;8.528;2023-06-22T04:56:31;7.70;;;4.10;;
4577;SDS011;2301;47.354;8.528;2023-06-22T04:58:58;9.07;;;4.33;;
4577;SDS011;2301;47.354;8.528;2023-06-22T05:01:25;7.30;;;4.13;;
4577;SDS011;2301;47.354;8.528;2023-06-22T05:03:52;6.50;;;3.93;;
4577;SDS011;2301;47.354;8.528;2023-06-22T05:06:20;8.40;;;4.27;;
4577;SDS011;2301;47.354;8.528;2023-06-22T05:08:51;9.07;;;4.80;;
4577;SDS011;2301;47.354;8.528;2023-06-22T05:11:22;6.80;;;3.97;;
4577;SDS011;2301;47.354;8.528;2023-06-22T05:13:49;6.80;;;4.27;;
4577;SDS011;2301;47.354;8.528;2023-06-22T05:16:16;10.77;;;4.20;;
4577;SDS011;2301;47.354;8.528;2023-06-22T05:18:49;9.63;;;4.67;;
4577;SDS011;2301;47.354;8.528;2023-06-22T05:21:20;7.60;;;4.20;;
4577;SDS011;2301;47.354;8.528;2023-06-22T05:23:48;12.13;;;5.10;;
4577;SDS011;2301;47.354;8.528;2023-06-22T05:26:17;9.63;;;4.50;;
4577;SDS011;2301;47.354;8.528;2023-06-22T05:28:44;10.47;;;5.10;;
4577;SDS011;2301;47.354;8.528;2023-06-22T05:31:12;7.47;;;4.37;;
4577;SDS011;2301;47.354;8.528;2023-06-22T05:33:39;8.57;;;4.40;;
4577;SDS011;2301;47.354;8.528;2023-06-22T05:36:07;12.50;;;4.50;;
4577;SDS011;2301;47.354;8.528;2023-06-22T05:38:33;7.97;;;4.90;;
4577;SDS011;2301;47.354;8.528;2023-06-22T05:41:02;9.13;;;5.17;;
4577;SDS011;2301;47.354;8.528;2023-06-22T05:43:29;11.60;;;5.00;;
4577;SDS011;2301;47.354;8.528;2023-06-22T05:45:56;7.37;;;4.60;;
4577;SDS011;2301;47.354;8.528;2023-06-22T05:48:23;13.13;;;5.73;;
4577;SDS011;2301;47.354;8.528;2023-06-22T05:50:50;11.50;;;5.30;;
4577;SDS011;2301;47.354;8.528;2023-06-22T05:53:17;9.50;;;4.77;;
4577;SDS011;2301;47.354;8.528;2023-06-22T05:55:44;9.77;;;4.93;;
4577;SDS011;2301;47.354;8.528;2023-06-22T05:58:13;9.47;;;5.00;;
4577;SDS011;2301;47.354;8.528;2023-06-22T06:00:40;10.27;;;5.10;;
4577;SDS011;2301;47.354;8.528;2023-06-22T06:03:08;10.40;;;4.70;;
4577;SDS011;2301;47.354;8.528;2023-06-22T06:05:36;9.30;;;5.07;;
4577;SDS011;2301;47.354;8.528;2023-06-22T06:08:03;8.50;;;4.97;;
4577;SDS011;2301;47.354;8.528;2023-06-22T06:10:31;12.23;;;5.07;;
4577;SDS011;2301;47.354;8.528;2023-06-22T06:12:59;11.27;;;5.80;;
4577;SDS011;2301;47.354;8.528;2023-06-22T06:15:31;9.80;;;4.80;;
4577;SDS011;2301;47.354;8.528;2023-06-22T06:17:58;11.80;;;4.37;;
4577;SDS011;2301;47.354;8.528;2023-06-22T06:20:25;9.03;;;4.73;;
4577;SDS011;2301;47.354;8.528;2023-06-22T06:22:53;14.20;;;5.20;;
4577;SDS011;2301;47.354;8.528;2023-06-22T06:25:20;7.57;;;5.40;;
4577;SDS011;2301;47.354;8.528;2023-06-22T06:27:48;9.87;;;5.60;;
4577;SDS011;2301;47.354;8.528;2023-06-22T06:30:16;9.80;;;4.70;;
4577;SDS011;2301;47.354;8.528;2023-06-22T06:32:46;10.60;;;5.07;;
4577;SDS011;2301;47.354;8.528;2023-06-22T06:35:14;8.30;;;4.93;;
4577;SDS011;2301;47.354;8.528;2023-06-22T06:37:42;10.17;;;5.00;;
4577;SDS011;2301;47.354;8.528;2023-06-22T06:40:11;10.83;;;5.47;;
4577;SDS011;2301;47.354;8.528;2023-06-22T06:42:40;9.93;;;5.50;;
4577;SDS011;2301;47.354;8.528;2023-06-22T06:45:09;11.23;;;5.50;;
4577;SDS011;2301;47.354;8.528;2023-06-22T06:47:37;10.47;;;5.07;;
4577;SDS011;2301;47.354;8.528;2023-06-22T06:50:07;8.80;;;5.13;;
4577;SDS011;2301;47.354;8.528;2023-06-22T06:52:34;11.70;;;5.37;;
4577;SDS011;2301;47.354;8.528;2023-06-22T06:55:02;9.00;;;4.70;;
4577;SDS011;2301;47.354;8.528;2023-06-22T06:57:33;8.20;;;4.63;;
4577;SDS011;2301;47.354;8.528;2023-06-22T07:00:00;7.80;;;5.00;;
4577;SDS011;2301;47.354;8.528;2023-06-22T07:02:31;7.20;;;4.57;;
4577;SDS011;2301;47.354;8.528;2023-06-22T07:04:58;10.03;;;5.10;;
4577;SDS011;2301;47.354;8.528;2023-06-22T07:07:27;8.83;;;5.20;;
4577;SDS011;2301;47.354;8.528;2023-06-22T07:09:54;7.03;;;4.40;;
4577;SDS011;2301;47.354;8.528;2023-06-22T07:12:21;8.33;;;4.93;;
4577;SDS011;2301;47.354;8.528;2023-06-22T07:14:48;7.20;;;4.60;;
4577;SDS011;2301;47.354;8.528;2023-06-22T07:17:15;9.27;;;5.00;;
4577;SDS011;2301;47.354;8.528;2023-06-22T07:19:42;9.53;;;4.57;;
4577;SDS011;2301;47.354;8.528;2023-06-22T07:22:09;5.90;;;4.00;;
4577;SDS011;2301;47.354;8.528;2023-06-22T07:24:42;8.30;;;4.37;;
4577;SDS011;2301;47.354;8.528;2023-06-22T07:27:10;9.03;;;4.70;;
4577;SDS011;2301;47.354;8.528;2023-06-22T07:29:37;8.30;;;4.30;;
4577;SDS011;2301;47.354;8.528;2023-06-22T07:32:05;10.03;;;4.33;;
4577;SDS011;2301;47.354;8.528;2023-06-22T07:34:33;8.30;;;3.87;;
4577;SDS011;2301;47.354;8.528;2023-06-22T07:37:00;7.20;;;4.10;;
4577;SDS011;2301;47.354;8.528;2023-06-22T07:39:27;6.33;;;3.80;;
4577;SDS011;2301;47.354;8.528;2023-06-22T07:41:55;12.00;;;4.17;;
4577;SDS011;2301;47.354;8.528;2023-06-22T07:44:23;8.03;;;4.10;;
4577;SDS011;2301;47.354;8.528;2023-06-22T07:46:50;17.47;;;5.00;;
4577;SDS011;2301;47.354;8.528;2023-06-22T07:49:17;8.67;;;4.50;;
4577;SDS011;2301;47.354;8.528;2023-06-22T07:51:44;7.30;;;4.27;;
4577;SDS011;2301;47.354;8.528;2023-06-22T07:54:10;14.53;;;6.10;;
4577;SDS011;2301;47.354;8.528;2023-06-22T07:56:37;17.63;;;6.00;;
4577;SDS011;2301;47.354;8.528;2023-06-22T07:59:05;20.07;;;5.63;;
4577;SDS011;2301;47.354;8.528;2023-06-22T08:01:32;10.27;;;4.73;;
4577;SDS011;2301;47.354;8.528;2023-06-22T08:03:59;13.33;;;5.87;;
4577;SDS011;2301;47.354;8.528;2023-06-22T08:06:26;10.60;;;4.60;;
4577;SDS011;2301;47.354;8.528;2023-06-22T08:08:55;6.27;;;4.40;;
4577;SDS011;2301;47.354;8.528;2023-06-22T08:11:24;6.43;;;4.13;;
4577;SDS011;2301;47.354;8.528;2023-06-22T08:13:51;8.93;;;4.33;;
4577;SDS011;2301;47.354;8.528;2023-06-22T08:16:19;7.67;;;4.70;;
4577;SDS011;2301;47.354;8.528;2023-06-22T08:18:46;8.33;;;4.13;;
4577;SDS011;2301;47.354;8.528;2023-06-22T08:21:13;13.77;;;4.37;;
4577;SDS011;2301;47.354;8.528;2023-06-22T08:23:40;8.30;;;3.77;;
4577;SDS011;2301;47.354;8.528;2023-06-22T08:26:06;7.57;;;4.07;;
4577;SDS011;2301;47.354;8.528;2023-06-22T08:28:33;11.20;;;4.57;;
4577;SDS011;2301;47.354;8.528;2023-06-22T08:31:01;8.20;;;4.40;;
4577;SDS011;2301;47.354;8.528;2023-06-22T08:33:30;9.57;;;4.10;;
4577;SDS011;2301;47.354;8.528;2023-06-22T08:35:57;8.30;;;4.97;;
4577;SDS011;2301;47.354;8.528;2023-06-22T08:38:24;8.87;;;3.80;;
4577;SDS011;2301;47.354;8.528;2023-06-22T08:40:52;10.23;;;5.00;;
4577;SDS011;2301;47.354;8.528;2023-06-22T08:43:21;12.00;;;4.77;;
4577;SDS011;2301;47.354;8.528;2023-06-22T08:45:50;6.80;;;4.03;;
4577;SDS011;2301;47.354;8.528;2023-06-22T08:48:20;6.17;;;3.37;;
4577;SDS011;2301;47.354;8.528;2023-06-22T08:50:51;8.47;;;4.10;;
4577;SDS011;2301;47.354;8.528;2023-06-22T08:53:21;7.90;;;4.37;;
4577;SDS011;2301;47.354;8.528;2023-06-22T08:55:51;6.87;;;3.83;;
4577;SDS011;2301;47.354;8.528;2023-06-22T08:58:22;11.87;;;4.90;;
4577;SDS011;2301;47.354;8.528;2023-06-22T09:00:49;8.17;;;4.27;;
4577;SDS011;2301;47.354;8.528;2023-06-22T09:03:16;15.90;;;4.67;;
4577;SDS011;2301;47.354;8.528;2023-06-22T09:05:45;7.30;;;4.53;;
4577;SDS011;2301;47.354;8.528;2023-06-22T09:08:13;5.83;;;3.80;;
4577;SDS011;2301;47.354;8.528;2023-06-22T09:10:40;9.47;;;4.20;;
4577;SDS011;2301;47.354;8.528;2023-06-22T09:13:07;9.80;;;4.80;;
4577;SDS011;2301;47.354;8.528;2023-06-22T09:15:34;9.87;;;4.60;;
4577;SDS011;2301;47.354;8.528;2023-06-22T09:18:01;7.57;;;4.00;;
4577;SDS011;2301;47.354;8.528;2023-06-22T09:20:28;9.23;;;4.90;;
4577;SDS011;2301;47.354;8.528;2023-06-22T09:22:55;8.50;;;4.30;;
4577;SDS011;2301;47.354;8.528;2023-06-22T09:25:24;6.97;;;4.70;;
4577;SDS011;2301;47.354;8.528;2023-06-22T09:27:51;10.30;;;4.63;;
4577;SDS011;2301;47.354;8.528;2023-06-22T09:30:18;10.07;;;4.77;;
4577;SDS011;2301;47.354;8.528;2023-06-22T09:32:45;10.93;;;4.23;;
4577;SDS011;2301;47.354;8.528;2023-06-22T09:35:12;9.47;;;4.03;;
4577;SDS011;2301;47.354;8.528;2023-06-22T09:37:40;6.53;;;4.30;;
4577;SDS011;2301;47.354;8.528;2023-06-22T09:40:11;7.10;;;3.83;;
4577;SDS011;2301;47.354;8.528;2023-06-22T09:42:43;9.60;;;3.90;;
4577;SDS011;2301;47.354;8.528;2023-06-22T09:45:10;7.27;;;4.43;;
4577;SDS011;2301;47.354;8.528;2023-06-22T09:47:37;9.57;;;4.00;;
4577;SDS011;2301;47.354;8.528;2023-06-22T09:50:04;8.00;;;4.00;;
4577;SDS011;2301;47.354;8.528;2023-06-22T09:52:31;7.70;;;4.07;;
4577;SDS011;2301;47.354;8.528;2023-06-22T09:54:58;7.00;;;3.90;;
4577;SDS011;2301;47.354;8.528;2023-06-22T09:57:25;12.83;;;4.17;;
4577;SDS011;2301;47.354;8.528;2023-06-22T09:59:53;10.93;;;3.77;;
4577;SDS011;2301;47.354;8.528;2023-06-22T10:02:20;5.47;;;3.60;;
4577;SDS011;2301;47.354;8.528;2023-06-22T10:04:47;11.20;;;4.97;;
4577;SDS011;2301;47.354;8.528;2023-06-22T10:07:14;7.73;;;4.20;;
4577;SDS011;2301;47.354;8.528;2023-06-22T10:09:41;7.67;;;4.50;;
4577;SDS011;2301;47.354;8.528;2023-06-22T10:12:08;9.70;;;4.57;;
4577;SDS011;2301;47.354;8.528;2023-06-22T10:14:35;8.73;;;4.50;;
4577;SDS011;2301;47.354;8.528;2023-06-22T10:17:04;8.67;;;3.73;;
4577;SDS011;2301;47.354;8.528;2023-06-22T10:19:32;6.57;;;4.20;;
4577;SDS011;2301;47.354;8.528;2023-06-22T10:22:02;8.07;;;4.63;;
4577;SDS011;2301;47.354;8.528;2023-06-22T10:24:29;7.70;;;4.27;;
4577;SDS011;2301;47.354;8.528;2023-06-22T10:26:56;10.20;;;5.03;;
4577;SDS011;2301;47.354;8.528;2023-06-22T10:29:23;8.80;;;4.03;;
4577;SDS011;2301;47.354;8.528;2023-06-22T10:31:49;12.03;;;4.57;;
4577;SDS011;2301;47.354;8.528;2023-06-22T10:34:18;9.23;;;4.83;;
4577;SDS011;2301;47.354;8.528;2023-06-22T10:36:44;9.97;;;5.33;;
4577;SDS011;2301;47.354;8.528;2023-06-22T10:39:13;7.07;;;4.43;;
4577;SDS011;2301;47.354;8.528;2023-06-22T10:41:40;7.87;;;4.40;;
4577;SDS011;2301;47.354;8.528;2023-06-22T10:44:08;6.87;;;4.00;;
4577;SDS011;2301;47.354;8.528;2023-06-22T10:46:35;7.00;;;4.37;;
4577;SDS011;2301;47.354;8.528;2023-06-22T10:49:02;13.63;;;4.97;;
4577;SDS011;2301;47.354;8.528;2023-06-22T10:51:31;7.40;;;4.40;;
4577;SDS011;2301;47.354;8.528;2023-06-22T10:53:58;9.17;;;4.80;;
4577;SDS011;2301;47.354;8.528;2023-06-22T10:56:25;12.60;;;5.30;;
4577;SDS011;2301;47.354;8.528;2023-06-22T10:58:52;12.50;;;4.80;;
4577;SDS011;2301;47.354;8.528;2023-06-22T11:01:20;9.80;;;4.93;;
4577;SDS011;2301;47.354;8.528;2023-06-22T11:03:47;10.13;;;5.07;;
4577;SDS011;2301;47.354;8.528;2023-06-22T11:06:13;9.30;;;5.20;;
4577;SDS011;2301;47.354;8.528;2023-06-22T11:08:44;10.20;;;5.70;;
4577;SDS011;2301;47.354;8.528;2023-06-22T11:11:12;11.07;;;5.33;;
4577;SDS011;2301;47.354;8.528;2023-06-22T11:13:38;9.30;;;5.70;;
4577;SDS011;2301;47.354;8.528;2023-06-22T11:16:06;7.40;;;5.40;;
4577;SDS011;2301;47.354;8.528;2023-06-22T11:18:33;11.43;;;6.00;;
4577;SDS011;2301;47.354;8.528;2023-06-22T11:21:00;11.20;;;5.30;;
4577;SDS011;2301;47.354;8.528;2023-06-22T11:23:26;7.27;;;4.77;;
4577;SDS011;2301;47.354;8.528;2023-06-22T11:25:55;15.20;;;5.47;;
4577;SDS011;2301;47.354;8.528;2023-06-22T11:28:22;9.03;;;5.80;;
4577;SDS011;2301;47.354;8.528;2023-06-22T11:30:48;10.33;;;5.17;;
4577;SDS011;2301;47.354;8.528;2023-06-22T11:33:16;6.70;;;4.40;;
4577;SDS011;2301;47.354;8.528;2023-06-22T11:35:43;9.50;;;5.00;;
4577;SDS011;2301;47.354;8.528;2023-06-22T11:38:10;10.73;;;5.37;;
4577;SDS011;2301;47.354;8.528;2023-06-22T11:40:43;8.67;;;4.70;;
4577;SDS011;2301;47.354;8.528;2023-06-22T11:43:14;7.37;;;4.60;;
4577;SDS011;2301;47.354;8.528;2023-06-22T11:45:41;7.37;;;3.93;;
4577;SDS011;2301;47.354;8.528;2023-06-22T11:48:08;10.43;;;4.47;;
4577;SDS011;2301;47.354;8.528;2023-06-22T11:50:35;8.93;;;4.63;;
4577;SDS011;2301;47.354;8.528;2023-06-22T11:53:02;9.27;;;5.80;;
4577;SDS011;2301;47.354;8.528;2023-06-22T11:55:28;10.90;;;4.70;;
4577;SDS011;2301;47.354;8.528;2023-06-22T11:57:56;9.03;;;4.83;;
4577;SDS011;2301;47.354;8.528;2023-06-22T12:00:29;8.50;;;4.10;;
4577;SDS011;2301;47.354;8.528;2023-06-22T12:02:56;7.93;;;4.50;;
4577;SDS011;2301;47.354;8.528;2023-06-22T12:05:23;6.87;;;4.00;;
4577;SDS011;2301;47.354;8.528;2023-06-22T12:07:52;6.90;;;4.13;;
4577;SDS011;2301;47.354;8.528;2023-06-22T12:10:19;7.00;;;4.20;;
4577;SDS011;2301;47.354;8.528;2023-06-22T12:12:47;8.97;;;5.10;;
4577;SDS011;2301;47.354;8.528;2023-06-22T12:15:14;9.87;;;4.53;;
4577;SDS011;2301;47.354;8.528;2023-06-22T12:17:42;13.63;;;5.30;;
4577;SDS011;2301;47.354;8.528;2023-06-22T12:20:09;8.63;;;4.37;;
4577;SDS011;2301;47.354;8.528;2023-06-22T12:22:37;13.17;;;5.83;;
4577;SDS011;2301;47.354;8.528;2023-06-22T12:25:04;10.73;;;4.83;;
4577;SDS011;2301;47.354;8.528;2023-06-22T12:27:32;8.37;;;4.80;;
4577;SDS011;2301;47.354;8.528;2023-06-22T12:29:59;7.57;;;5.27;;
4577;SDS011;2301;47.354;8.528;2023-06-22T12:32:26;7.97;;;4.43;;
4577;SDS011;2301;47.354;8.528;2023-06-22T12:34:54;9.43;;;4.30;;
4577;SDS011;2301;47.354;8.528;2023-06-22T12:37:21;10.13;;;4.27;;
4577;SDS011;2301;47.354;8.528;2023-06-22T12:39:49;10.23;;;5.03;;
4577;SDS011;2301;47.354;8.528;2023-06-22T12:42:16;15.73;;;4.70;;
4577;SDS011;2301;47.354;8.528;2023-06-22T12:44:43;9.23;;;4.10;;
4577;SDS011;2301;47.354;8.528;2023-06-22T12:47:09;7.37;;;3.73;;
4577;SDS011;2301;47.354;8.528;2023-06-22T12:49:38;9.20;;;4.17;;
4577;SDS011;2301;47.354;8.528;2023-06-22T12:52:09;8.80;;;4.40;;
4577;SDS011;2301;47.354;8.528;2023-06-22T12:54:37;8.53;;;3.50;;
4577;SDS011;2301;47.354;8.528;2023-06-22T12:57:04;8.00;;;3.77;;
4577;SDS011;2301;47.354;8.528;2023-06-22T12:59:32;8.50;;;3.97;;
4577;SDS011;2301;47.354;8.528;2023-06-22T13:01:59;7.90;;;3.57;;
4577;SDS011;2301;47.354;8.528;2023-06-22T13:04:26;9.07;;;3.90;;
4577;SDS011;2301;47.354;8.528;2023-06-22T13:06:53;9.07;;;3.80;;
4577;SDS011;2301;47.354;8.528;2023-06-22T13:09:21;7.53;;;3.50;;
4577;SDS011;2301;47.354;8.528;2023-06-22T13:11:48;12.97;;;3.87;;
4577;SDS011;2301;47.354;8.528;2023-06-22T13:14:17;7.70;;;3.67;;
4577;SDS011;2301;47.354;8.528;2023-06-22T13:16:44;8.00;;;4.10;;
4577;SDS011;2301;47.354;8.528;2023-06-22T13:19:11;13.40;;;3.50;;
4577;SDS011;2301;47.354;8.528;2023-06-22T13:21:38;7.40;;;3.10;;
4577;SDS011;2301;47.354;8.528;2023-06-22T13:24:06;6.47;;;3.20;;
4577;SDS011;2301;47.354;8.528;2023-06-22T13:26:35;6.53;;;3.10;;
4577;SDS011;2301;47.354;8.528;2023-06-22T13:29:02;8.40;;;3.10;;
4577;SDS011;2301;47.354;8.528;2023-06-22T13:31:28;5.63;;;2.93;;
4577;SDS011;2301;47.354;8.528;2023-06-22T13:33:56;6.07;;;3.03;;
4577;SDS011;2301;47.354;8.528;2023-06-22T13:36:23;10.90;;;2.80;;
4577;SDS011;2301;47.354;8.528;2023-06-22T13:38:50;6.37;;;3.17;;
4577;SDS011;2301;47.354;8.528;2023-06-22T13:41:17;11.93;;;2.80;;
4577;SDS011;2301;47.354;8.528;2023-06-22T13:43:46;10.70;;;3.13;;
4577;SDS011;2301;47.354;8.528;2023-06-22T13:46:12;6.90;;;2.90;;
4577;SDS011;2301;47.354;8.528;2023-06-22T13:48:40;10.83;;;3.23;;
4577;SDS011;2301;47.354;8.528;2023-06-22T13:51:06;8.50;;;2.90;;
4577;SDS011;2301;47.354;8.528;2023-06-22T13:53:34;10.50;;;3.50;;
4577;SDS011;2301;47.354;8.528;2023-06-22T13:56:01;6.27;;;2.90;;
4577;SDS011;2301;47.354;8.528;2023-06-22T13:58:28;8.03;;;2.77;;
4577;SDS011;2301;47.354;8.528;2023-06-22T14:00:57;6.40;;;2.60;;
4577;SDS011;2301;47.354;8.528;2023-06-22T14:03:23;12.07;;;2.80;;
4577;SDS011;2301;47.354;8.528;2023-06-22T14:05:51;10.30;;;2.50;;
4577;SDS011;2301;47.354;8.528;2023-06-22T14:08:24;13.50;;;2.70;;
4577;SDS011;2301;47.354;8.528;2023-06-22T14:10:54;7.20;;;3.33;;
4577;SDS011;2301;47.354;8.528;2023-06-22T14:13:24;9.50;;;3.20;;
4577;SDS011;2301;47.354;8.528;2023-06-22T14:15:54;8.33;;;3.47;;
4577;SDS011;2301;47.354;8.528;2023-06-22T14:18:22;5.77;;;2.63;;
4577;SDS011;2301;47.354;8.528;2023-06-22T14:20:50;8.27;;;3.23;;
4577;SDS011;2301;47.354;8.528;2023-06-22T14:23:16;12.80;;;3.70;;
4577;SDS011;2301;47.354;8.528;2023-06-22T14:25:46;8.70;;;2.70;;
4577;SDS011;2301;47.354;8.528;2023-06-22T14:28:13;10.47;;;3.50;;
4577;SDS011;2301;47.354;8.528;2023-06-22T14:30:41;12.93;;;2.97;;
4577;SDS011;2301;47.354;8.528;2023-06-22T14:33:08;9.03;;;3.40;;
4577;SDS011;2301;47.354;8.528;2023-06-22T14:35:36;10.27;;;3.47;;
4577;SDS011;2301;47.354;8.528;2023-06-22T14:38:03;6.63;;;3.00;;
4577;SDS011;2301;47.354;8.528;2023-06-22T14:40:30;8.70;;;3.30;;
4577;SDS011;2301;47.354;8.528;2023-06-22T14:42:57;9.03;;;3.40;;
4577;SDS011;2301;47.354;8.528;2023-06-22T14:45:24;9.33;;;3.23;;
4577;SDS011;2301;47.354;8.528;2023-06-22T14:47:51;8.93;;;3.53;;
4577;SDS011;2301;47.354;8.528;2023-06-22T14:50:19;6.73;;;3.00;;
4577;SDS011;2301;47.354;8.528;2023-06-22T14:52:47;11.10;;;3.97;;
4577;SDS011;2301;47.354;8.528;2023-06-22T14:55:14;16.33;;;3.60;;
4577;SDS011;2301;47.354;8.528;2023-06-22T14:57:41;11.77;;;3.90;;
4577;SDS011;2301;47.354;8.528;2023-06-22T15:00:09;9.07;;;3.70;;
4577;SDS011;2301;47.354;8.528;2023-06-22T15:02:37;9.33;;;3.80;;
4577;SDS011;2301;47.354;8.528;2023-06-22T15:05:07;11.60;;;3.07;;
4577;SDS011;2301;47.354;8.528;2023-06-22T15:07:37;11.90;;;3.80;;
4577;SDS011;2301;47.354;8.528;2023-06-22T15:10:09;8.60;;;3.13;;
4577;SDS011;2301;47.354;8.528;2023-06-22T15:12:39;9.10;;;3.70;;
4577;SDS011;2301;47.354;8.528;2023-06-22T15:15:10;13.53;;;3.83;;
4577;SDS011;2301;47.354;8.528;2023-06-22T15:17:40;7.40;;;3.50;;